Time;durP1;ratioP1;P1;durP2;ratioP2;P2;SDS_P1;SDS_P2;PMS_P1;PMS_P2;Temp;Humidity;BMP_temperature;BMP_pressure;BME280_temperature;BME280_humidity;BME280_pressure;Samples;Min_cycle;Max_cycle;Signal;HPM_P1;HPM_P2
2021/06/12 00:01:12;;;;;;;8.73;7.35;;;17.10;99.90;;;;;;5081957;28;20111;-79
2021/06/12 00:03:38;;;;;;;12.45;8.63;;;17.20;99.90;;;;;;5073764;28;20040;-79
2021/06/12 00:06:05;;;;;;;9.25;8.25;;;17.10;99.90;;;;;;5071787;28;20036;-78
2021/06/12 00:08:31;;;;;;;9.95;8.32;;;17.00;99.90;;;;;;5089274;28;20036;-77
2021/06/12 00:10:57;;;;;;;12.20;8.20;;;17.10;99.90;;;;;;5090368;28;20028;-79
2021/06/12 00:13:23;;;;;;;10.20;8.23;;;17.30;99.90;;;;;;5089946;28;20036;-76
2021/06/12 00:15:49;;;;;;;11.25;8.20;;;16.90;99.90;;;;;;5091967;28;20077;-78
2021/06/12 00:18:15;;;;;;;10.25;8.00;;;17.20;99.90;;;;;;5073860;28;20059;-78
2021/06/12 00:20:41;;;;;;;8.85;7.93;;;17.40;99.90;;;;;;5072622;28;20033;-76
2021/06/12 00:23:07;;;;;;;10.45;8.10;;;17.20;99.90;;;;;;5086377;28;20028;-77
2021/06/12 00:25:33;;;;;;;10.73;8.02;;;17.00;99.90;;;;;;5091082;28;20396;-76
2021/06/12 00:28:00;;;;;;;9.30;7.97;;;16.80;99.90;;;;;;5078776;28;20319;-78
2021/06/12 00:30:27;;;;;;;12.95;8.77;;;17.10;99.90;;;;;;5078834;28;20028;-79
2021/06/12 00:32:53;;;;;;;9.93;7.40;;;17.10;99.90;;;;;;5077759;28;20477;-76
2021/06/12 00:35:20;;;;;;;8.10;7.30;;;16.00;99.90;;;;;;5071788;28;20663;-78
2021/06/12 00:37:46;;;;;;;11.18;7.25;;;17.20;99.90;;;;;;5086393;28;20035;-82
2021/06/12 00:40:14;;;;;;;10.48;7.88;;;18.00;99.90;;;;;;5095443;28;20024;-77
2021/06/12 00:42:41;;;;;;;14.18;7.88;;;17.10;99.90;;;;;;5082434;28;20028;-77
2021/06/12 00:45:09;;;;;;;10.20;8.07;;;17.00;99.90;;;;;;5073259;28;20032;-77
2021/06/12 00:47:35;;;;;;;14.95;7.75;;;17.30;99.90;;;;;;5083388;28;20384;-77
2021/06/12 00:50:01;;;;;;;8.88;8.07;;;17.30;99.90;;;;;;5092144;28;20082;-78
2021/06/12 00:52:26;;;;;;;9.55;8.05;;;17.20;99.90;;;;;;5086297;28;20033;-77
2021/06/12 00:54:52;;;;;;;9.50;7.78;;;17.10;99.90;;;;;;5059884;28;20028;-79
2021/06/12 00:57:18;;;;;;;10.57;7.88;;;17.20;99.90;;;;;;5084613;28;20431;-78
2021/06/12 00:59:44;;;;;;;9.23;8.25;;;17.00;99.90;;;;;;5077912;28;20445;-75
2021/06/12 01:02:10;;;;;;;9.77;7.93;;;17.80;99.90;;;;;;5081418;28;20024;-77
2021/06/12 01:04:35;;;;;;;10.00;9.00;;;16.80;99.90;;;;;;5078054;28;20033;-75
2021/06/12 01:07:01;;;;;;;11.32;8.70;;;16.80;99.90;;;;;;5081039;28;20050;-77
2021/06/12 01:09:27;;;;;;;10.25;9.20;;;16.70;99.90;;;;;;5091784;28;20089;-78
2021/06/12 01:12:11;;;;;;;18.80;9.57;;;16.60;99.90;;;;;;5091366;28;20036;-80
2021/06/12 01:14:42;;;;;;;12.07;8.95;;;16.60;99.90;;;;;;5074683;28;20029;-82
2021/06/12 01:17:34;;;;;;;10.75;9.00;;;16.50;99.90;;;;;;5083178;28;20089;-80
2021/06/12 01:20:18;;;;;;;12.77;9.00;;;16.60;99.90;;;;;;5097807;28;20024;-82
2021/06/12 01:22:47;;;;;;;12.27;8.65;;;16.80;99.90;;;;;;5086476;28;20090;-80
2021/06/12 01:25:31;;;;;;;11.70;9.13;;;16.70;99.90;;;;;;5079728;28;20067;-81
2021/06/12 01:28:27;;;;;;;10.38;8.85;;;16.60;99.90;;;;;;5090207;28;20028;-82
2021/06/12 01:30:55;;;;;;;14.68;9.88;;;17.10;99.90;;;;;;5082339;28;20024;-79
2021/06/12 01:33:21;;;;;;;11.88;9.52;;;16.70;99.90;;;;;;5066684;28;20032;-81
2021/06/12 01:35:53;;;;;;;10.45;8.73;;;16.80;99.90;;;;;;5044290;28;20029;-81
2021/06/12 01:38:26;;;;;;;9.40;8.50;;;16.80;99.90;;;;;;5082210;28;20032;-79
2021/06/12 01:40:55;;;;;;;11.90;9.45;;;16.70;99.90;;;;;;5087041;28;20036;-79
2021/06/12 01:43:23;;;;;;;11.05;9.23;;;16.50;99.90;;;;;;5085276;28;20109;-78
2021/06/12 01:45:50;;;;;;;9.45;8.55;;;16.80;99.90;;;;;;5090526;28;20500;-80
2021/06/12 01:48:17;;;;;;;9.85;8.70;;;16.40;99.90;;;;;;5089891;28;20024;-79
2021/06/12 19:51:39;;;;;;;6.95;3.25;;;21.50;99.90;;;;;;5096942;27;20309;-79
2021/06/12 19:54:06;;;;;;;9.70;3.47;;;21.20;99.90;;;;;;5050522;28;20032;-80
2021/06/12 19:56:33;;;;;;;5.00;3.38;;;20.70;99.90;;;;;;5057655;28;20028;-80
2021/06/12 19:58:59;;;;;;;6.57;4.07;;;20.70;99.90;;;;;;5062431;28;20555;-80
2021/06/12 20:01:26;;;;;;;8.77;3.88;;;20.70;99.90;;;;;;5064269;28;20063;-80
2021/06/12 20:03:52;;;;;;;5.82;3.92;;;20.60;99.90;;;;;;5062541;28;20029;-77
2021/06/12 20:06:18;;;;;;;6.13;4.30;;;20.50;99.90;;;;;;5059240;28;20036;-80
2021/06/12 20:08:43;;;;;;;6.15;4.22;;;20.50;99.90;;;;;;5058179;28;20022;-79
2021/06/12 20:11:10;;;;;;;8.88;4.43;;;20.50;99.90;;;;;;5059133;28;20021;-80
2021/06/12 20:13:37;;;;;;;8.85;4.22;;;20.40;99.90;;;;;;5059003;28;20028;-79
2021/06/12 20:16:04;;;;;;;6.50;4.72;;;20.30;99.90;;;;;;5061028;28;20077;-80
2021/06/12 20:18:30;;;;;;;8.48;4.30;;;20.30;99.90;;;;;;5060167;28;20116;-80
2021/06/12 20:20:56;;;;;;;7.03;3.85;;;20.20;99.90;;;;;;5061313;28;20096;-80
2021/06/12 20:23:22;;;;;;;6.43;4.28;;;20.20;99.90;;;;;;5058524;28;20032;-80
2021/06/12 20:25:49;;;;;;;6.53;3.78;;;20.00;99.90;;;;;;5066497;28;20017;-80
2021/06/12 20:28:14;;;;;;;8.43;5.60;;;20.00;99.90;;;;;;5061206;28;20359;-80
2021/06/12 20:30:40;;;;;;;4.88;3.60;;;19.80;99.90;;;;;;5065853;28;20043;-80
2021/06/12 20:33:06;;;;;;;6.32;4.03;;;19.70;99.90;;;;;;5061539;28;20048;-80
2021/06/12 20:35:32;;;;;;;5.88;3.28;;;19.80;99.90;;;;;;5062036;28;20017;-80
2021/06/12 20:37:57;;;;;;;4.78;3.53;;;19.60;99.90;;;;;;5059632;28;20021;-80
2021/06/12 20:40:23;;;;;;;10.02;3.80;;;19.60;99.90;;;;;;5068710;28;20033;-79
2021/06/12 20:42:49;;;;;;;6.07;4.00;;;19.60;99.90;;;;;;5056041;28;20059;-80
2021/06/12 20:45:15;;;;;;;4.55;4.00;;;20.30;99.90;;;;;;5049852;28;20037;-80
2021/06/12 20:47:40;;;;;;;7.65;4.05;;;19.50;99.90;;;;;;5048450;28;20398;-80
2021/06/12 20:50:08;;;;;;;5.65;3.33;;;19.40;99.90;;;;;;5030670;28;20044;-80
2021/06/12 20:52:35;;;;;;;5.45;3.70;;;19.40;99.90;;;;;;5048754;28;20371;-80
2021/06/12 20:55:02;;;;;;;4.85;3.80;;;19.40;99.90;;;;;;5048475;28;20187;-80
2021/06/12 20:57:28;;;;;;;4.70;3.90;;;19.40;99.90;;;;;;5049974;28;20497;-80
2021/06/12 20:59:54;;;;;;;6.43;3.83;;;19.30;99.90;;;;;;5047816;28;20036;-80
2021/06/12 21:02:19;;;;;;;6.30;3.63;;;19.30;99.90;;;;;;5039135;28;20482;-80
2021/06/12 21:04:45;;;;;;;5.97;3.88;;;19.30;99.90;;;;;;5036120;28;20040;-80
2021/06/12 21:07:11;;;;;;;5.93;4.95;;;19.30;99.90;;;;;;5044863;28;20145;-80
2021/06/12 21:09:36;;;;;;;4.57;3.78;;;19.30;99.90;;;;;;5064896;28;20544;-80
2021/06/12 21:12:02;;;;;;;4.97;3.75;;;19.30;99.90;;;;;;5035654;28;20030;-80
2021/06/12 21:14:28;;;;;;;8.32;4.10;;;19.40;99.90;;;;;;5019467;28;20030;-80
2021/06/12 21:16:53;;;;;;;9.50;5.47;;;19.40;99.90;;;;;;5037744;28;20044;-80
2021/06/12 21:19:19;;;;;;;10.05;4.65;;;19.60;99.90;;;;;;5036596;28;20025;-80
2021/06/12 21:21:45;;;;;;;4.05;3.35;;;19.60;99.90;;;;;;5037416;28;20102;-80
2021/06/12 21:24:10;;;;;;;8.27;3.28;;;19.70;99.90;;;;;;5015330;28;20033;-80
2021/06/12 21:29:06;;;;;;;8.07;3.42;;;19.70;99.90;;;;;;5016936;28;20049;-80
2021/06/12 21:31:33;;;;;;;5.28;3.30;;;19.60;99.90;;;;;;5019456;28;20696;-82
2021/06/12 21:33:59;;;;;;;4.20;3.28;;;19.40;99.90;;;;;;5018152;28;20022;-81
2021/06/12 21:36:24;;;;;;;5.65;3.33;;;19.30;99.90;;;;;;5019210;28;20025;-81
2021/06/12 21:38:50;;;;;;;6.32;3.60;;;19.20;99.90;;;;;;5018091;28;20076;-82
2021/06/12 21:41:16;;;;;;;5.97;3.70;;;18.90;99.90;;;;;;5000759;28;20057;-82
2021/06/12 21:43:42;;;;;;;4.57;3.45;;;18.70;99.90;;;;;;5018332;28;20107;-82
2021/06/12 21:46:08;;;;;;;5.38;4.30;;;18.40;99.90;;;;;;5018687;28;20498;-82
2021/06/12 21:48:33;;;;;;;9.43;3.80;;;18.40;99.90;;;;;;5000454;28;20492;-82
2021/06/12 21:50:59;;;;;;;7.03;3.63;;;18.30;99.90;;;;;;5000990;28;20149;-81
2021/06/12 21:53:24;;;;;;;9.70;3.78;;;18.10;99.90;;;;;;5014949;28;20176;-82
2021/06/12 21:55:50;;;;;;;7.15;3.88;;;18.10;99.90;;;;;;5018807;28;20045;-82
2021/06/12 21:58:16;;;;;;;6.07;5.22;;;18.00;99.90;;;;;;5018522;28;20453;-81
2021/06/12 22:01:06;;;;;;;10.55;7.97;;;17.90;99.90;;;;;;5018481;28;20036;-81
2021/06/12 22:03:33;;;;;;;6.63;5.55;;;18.00;99.90;;;;;;5010862;28;20061;-81
2021/06/12 22:06:00;;;;;;;11.25;5.40;;;17.70;99.90;;;;;;5019821;28;20367;-81
2021/06/12 22:08:26;;;;;;;8.63;5.63;;;17.70;99.90;;;;;;5019109;28;20026;-80
2021/06/12 22:10:53;;;;;;;8.10;5.85;;;17.60;99.90;;;;;;5018358;28;20033;-81
2021/06/12 22:13:19;;;;;;;9.38;6.50;;;17.50;99.90;;;;;;5018731;28;20022;-81
2021/06/12 22:15:44;;;;;;;14.35;10.43;;;17.50;99.90;;;;;;5019237;28;20037;-81
2021/06/12 22:18:11;;;;;;;7.55;5.63;;;17.40;99.90;;;;;;5019066;28;20034;-82
2021/06/12 22:20:51;;;;;;;7.10;4.75;;;15.50;99.90;;;;;;5012877;28;20030;-80
2021/06/12 22:23:18;;;;;;;7.25;4.93;;;17.40;99.90;;;;;;5018060;28;20032;-81
2021/06/12 22:25:45;;;;;;;7.90;5.90;;;17.90;99.90;;;;;;5003897;28;20021;-81
2021/06/12 22:28:11;;;;;;;13.63;4.90;;;17.20;99.90;;;;;;5003559;28;20572;-81
2021/06/12 22:30:37;;;;;;;4.93;4.43;;;17.10;99.90;;;;;;5021829;28;20030;-81
2021/06/12 22:33:03;;;;;;;6.53;4.45;;;17.00;99.90;;;;;;5022493;28;20120;-81
2021/06/12 22:35:29;;;;;;;6.72;4.13;;;16.90;99.90;;;;;;5004614;28;20034;-80
2021/06/12 22:37:55;;;;;;;6.50;4.68;;;16.80;99.90;;;;;;5018099;28;20030;-80
2021/06/12 22:40:21;;;;;;;6.70;5.38;;;16.90;99.90;;;;;;5014517;28;20026;-81
2021/06/12 22:42:47;;;;;;;7.60;5.60;;;16.90;99.90;;;;;;5015116;28;20089;-80
2021/06/12 22:45:13;;;;;;;7.13;5.47;;;16.70;99.90;;;;;;4997564;28;20405;-80
2021/06/12 22:47:40;;;;;;;7.65;6.38;;;16.70;99.90;;;;;;5014978;28;20065;-80
2021/06/12 22:50:07;;;;;;;6.55;5.40;;;16.60;99.90;;;;;;5014233;28;20045;-79
2021/06/12 22:52:33;;;;;;;7.97;5.50;;;16.50;99.90;;;;;;5014238;28;20021;-80
2021/06/12 22:54:59;;;;;;;8.95;6.03;;;17.20;99.90;;;;;;5015238;28;20029;-81
2021/06/12 22:57:25;;;;;;;10.07;5.65;;;17.30;99.90;;;;;;5014849;28;20026;-81
2021/06/12 22:59:51;;;;;;;6.97;5.47;;;16.40;99.90;;;;;;5013852;28;20113;-81
2021/06/12 23:02:17;;;;;;;6.80;6.07;;;16.30;99.90;;;;;;5014120;28;20034;-80
2021/06/12 23:04:43;;;;;;;6.40;5.47;;;16.40;99.90;;;;;;5014602;28;20109;-80
2021/06/12 23:07:09;;;;;;;10.20;5.00;;;16.00;99.90;;;;;;5014576;28;20079;-79
2021/06/12 23:09:34;;;;;;;7.10;5.63;;;16.30;99.90;;;;;;4995927;28;20656;-78
2021/06/12 23:12:00;;;;;;;7.28;5.85;;;16.20;99.90;;;;;;4980186;28;20057;-79
2021/06/12 23:14:26;;;;;;;8.98;5.00;;;16.20;99.90;;;;;;5014201;28;20045;-79
2021/06/12 23:16:52;;;;;;;5.68;5.00;;;16.30;99.90;;;;;;4996118;28;20041;-79
2021/06/12 23:19:18;;;;;;;8.60;5.57;;;16.30;99.90;;;;;;5015458;28;20041;-80
2021/06/12 23:21:44;;;;;;;8.30;5.65;;;16.20;99.90;;;;;;5020385;28;20034;-79
2021/06/12 23:24:10;;;;;;;9.35;6.00;;;16.20;99.90;;;;;;5020221;28;20099;-79
2021/06/12 23:26:36;;;;;;;6.47;4.90;;;16.10;99.90;;;;;;5020005;28;20076;-79
2021/06/12 23:29:02;;;;;;;6.90;5.30;;;16.00;99.90;;;;;;5020063;28;20029;-79
2021/06/12 23:31:28;;;;;;;10.27;5.63;;;15.90;99.90;;;;;;5020823;28;20112;-79
2021/06/12 23:33:54;;;;;;;8.13;5.38;;;15.80;99.90;;;;;;5020743;28;20453;-80
2021/06/12 23:36:20;;;;;;;8.20;5.15;;;15.70;99.90;;;;;;5003106;28;20034;-80
2021/06/12 23:38:46;;;;;;;7.68;5.68;;;15.70;99.90;;;;;;5004551;28;20060;-79
2021/06/12 23:41:12;;;;;;;7.93;6.63;;;15.60;99.90;;;;;;4999576;28;20057;-79
2021/06/12 23:43:39;;;;;;;8.35;5.97;;;15.60;99.90;;;;;;5015071;28;20486;-78
2021/06/12 23:46:05;;;;;;;7.72;6.63;;;15.60;99.90;;;;;;5032353;28;20022;-80
2021/06/12 23:48:31;;;;;;;8.02;6.13;;;15.60;99.90;;;;;;5038154;28;20030;-81
2021/06/12 23:50:56;;;;;;;8.55;6.22;;;15.30;99.90;;;;;;5037500;28;20085;-81
2021/06/12 23:53:22;;;;;;;7.28;5.70;;;15.70;99.90;;;;;;5024759;28;20026;-75
2021/06/12 23:55:48;;;;;;;6.90;5.68;;;15.40;99.90;;;;;;5014599;28;20109;-77
2021/06/12 23:58:13;;;;;;;10.15;6.63;;;16.60;99.90;;;;;;5013482;28;20506;-76
